Time;durP1;ratioP1;P1;durP2;ratioP2;P2;SDS_P1;SDS_P2;PMS_P1;PMS_P2;Temp;Humidity;BMP_temperature;BMP_pressure;BME280_temperature;BME280_humidity;BME280_pressure;Samples;Min_cycle;Max_cycle;Signal;HPM_P1;HPM_P2
2021/12/30 00:01:11;;;;;;;39.60;8.15;;;;;;;12.77;77.87;101092.94;4943119;28;20486;-60
2021/12/30 00:03:37;;;;;;;40.20;7.25;;;;;;;12.82;77.91;101098.22;4928177;28;20065;-59
2021/12/30 00:06:04;;;;;;;32.67;7.28;;;;;;;12.79;78.03;101098.19;4940618;28;20372;-60
2021/12/30 00:08:29;;;;;;;37.00;7.15;;;;;;;12.81;77.92;101105.19;4934672;28;20297;-61
2021/12/30 00:10:55;;;;;;;40.53;7.65;;;;;;;12.84;77.92;101101.72;4944362;28;20046;-59
2021/12/30 00:13:21;;;;;;;46.17;7.78;;;;;;;12.86;77.85;101095.66;4939293;28;20604;-60
2021/12/30 00:15:47;;;;;;;39.35;7.15;;;;;;;12.88;77.73;101095.63;4930782;28;20085;-60
2021/12/30 00:18:12;;;;;;;37.58;6.90;;;;;;;12.86;77.71;101089.53;4941529;28;20138;-59
2021/12/30 00:20:38;;;;;;;41.50;7.18;;;;;;;12.92;77.94;101103.53;4942645;28;20500;-59
2021/12/30 00:23:06;;;;;;;36.60;6.90;;;;;;;12.89;77.78;101095.66;4943932;28;20043;-60
2021/12/30 00:25:38;;;;;;;37.67;6.85;;;;;;;13.03;77.85;101093.16;4938335;28;20041;-59
2021/12/30 00:28:09;;;;;;;38.45;7.20;;;;;;;13.05;77.89;101088.81;4945055;28;20102;-59
2021/12/30 00:30:41;;;;;;;37.85;6.78;;;;;;;12.99;77.96;101089.59;4934178;28;20062;-60
2021/12/30 00:33:07;;;;;;;39.33;7.07;;;;;;;13.02;78.31;101091.38;4940741;28;20146;-60
2021/12/30 00:35:33;;;;;;;38.47;7.28;;;;;;;13.16;77.98;101099.38;4929462;28;20054;-59
2021/12/30 00:37:59;;;;;;;41.63;7.07;;;;;;;13.15;78.16;101100.22;4942982;28;20478;-60
2021/12/30 00:40:24;;;;;;;40.65;7.50;;;;;;;13.17;78.41;101099.38;4942072;28;20138;-59
2021/12/30 00:42:50;;;;;;;33.30;7.32;;;;;;;13.31;78.34;101102.94;4940687;28;20046;-61
2021/12/30 00:45:16;;;;;;;39.35;7.50;;;;;;;13.39;77.81;101103.00;4937007;28;20566;-59
2021/12/30 00:47:42;;;;;;;38.00;7.05;;;;;;;13.35;78.04;101101.25;4932659;28;20807;-60
2021/12/30 00:50:08;;;;;;;35.05;6.80;;;;;;;13.43;77.98;101096.91;4940882;28;20043;-60
2021/12/30 00:52:34;;;;;;;38.72;6.85;;;;;;;13.42;77.96;101092.53;4937906;28;20047;-59
2021/12/30 00:55:00;;;;;;;32.90;6.18;;;;;;;13.44;78.13;101103.00;4942875;28;20774;-59
2021/12/30 00:57:25;;;;;;;35.67;6.85;;;;;;;13.46;78.25;101107.41;4923326;28;20455;-59
2021/12/30 00:59:50;;;;;;;35.50;6.70;;;;;;;13.48;78.60;101105.66;4941179;28;20081;-60
2021/12/30 01:02:16;;;;;;;31.60;6.20;;;;;;;13.57;78.38;101087.38;4939717;28;20045;-60
2021/12/30 01:04:42;;;;;;;37.63;6.53;;;;;;;13.65;78.15;101095.28;4930664;28;20050;-60
2021/12/30 01:07:07;;;;;;;31.75;6.57;;;;;;;13.67;78.14;101094.41;4943515;28;20051;-60
2021/12/30 01:09:32;;;;;;;30.45;5.88;;;;;;;13.68;77.92;101095.28;4932836;28;20609;-60
2021/12/30 01:11:58;;;;;;;22.85;5.47;;;;;;;13.61;78.30;101091.75;4940944;28;20054;-60
2021/12/30 01:14:27;;;;;;;27.95;5.60;;;;;;;13.71;78.08;101092.69;4942317;28;20769;-60
2021/12/30 01:16:58;;;;;;;29.23;6.38;;;;;;;13.68;78.17;101087.41;4936839;28;20050;-59
2021/12/30 01:19:42;;;;;;;28.25;6.13;;;;;;;13.70;77.82;101083.94;4935054;28;20051;-60
2021/12/30 01:22:10;;;;;;;24.23;6.07;;;;;;;13.71;78.23;101095.31;4940875;28;20053;-59
2021/12/30 01:24:35;;;;;;;25.15;6.68;;;;;;;13.76;77.83;101102.31;4943773;28;20042;-59
2021/12/30 01:27:01;;;;;;;24.42;6.53;;;;;;;13.80;77.98;101103.19;4941048;28;20042;-59
2021/12/30 01:29:29;;;;;;;28.45;7.20;;;;;;;13.82;77.88;101120.69;4937799;28;20042;-60
2021/12/30 01:31:55;;;;;;;26.40;7.32;;;;;;;13.74;78.11;101119.75;4944257;28;20336;-60
2021/12/30 01:34:21;;;;;;;29.75;8.05;;;;;;;13.81;77.80;101129.41;4942139;28;20105;-60
2021/12/30 01:36:46;;;;;;;29.58;8.45;;;;;;;13.84;77.93;101130.28;4938259;28;20435;-60
2021/12/30 01:39:12;;;;;;;24.55;7.80;;;;;;;13.85;77.80;101143.38;4933441;28;20055;-60
2021/12/30 01:41:40;;;;;;;23.10;8.00;;;;;;;13.89;77.74;101158.28;4936454;28;20109;-59
2021/12/30 01:44:05;;;;;;;26.10;8.68;;;;;;;13.85;77.89;101160.84;4933139;28;20042;-59
2021/12/30 01:46:41;;;;;;;28.05;8.52;;;;;;;13.84;77.86;101157.38;4943084;28;20058;-59
2021/12/30 01:49:10;;;;;;;28.90;8.98;;;;;;;13.80;77.85;101146.00;4941841;28;20451;-59
2021/12/30 01:51:35;;;;;;;28.67;8.80;;;;;;;13.85;77.68;101145.13;4932820;28;20038;-59
2021/12/30 01:54:01;;;;;;;24.55;8.57;;;;;;;13.79;78.01;101157.34;4941465;28;20058;-59
2021/12/30 01:56:26;;;;;;;26.90;8.02;;;;;;;13.91;78.08;101150.38;4946443;28;21045;-59
2021/12/30 01:58:54;;;;;;;23.08;7.38;;;;;;;13.91;78.02;101145.16;4934694;28;20463;-59
2021/12/30 02:01:19;;;;;;;18.35;6.93;;;;;;;13.95;78.18;101144.31;4936529;28;20039;-60
2021/12/30 02:03:45;;;;;;;21.00;7.05;;;;;;;13.97;77.96;101153.03;4941076;28;20124;-60
2021/12/30 02:06:11;;;;;;;18.65;6.60;;;;;;;14.05;77.88;101156.56;4937464;28;20108;-60
2021/12/30 02:08:36;;;;;;;16.92;6.25;;;;;;;14.03;78.05;101153.94;4942591;28;20510;-60
2021/12/30 02:11:02;;;;;;;14.73;5.72;;;;;;;14.02;78.33;101159.19;4937709;28;20058;-59
2021/12/30 02:13:27;;;;;;;14.35;5.72;;;;;;;14.07;77.83;101146.97;4933189;28;20102;-59
2021/12/30 02:16:00;;;;;;;14.85;5.90;;;;;;;13.94;78.35;101145.19;4943142;28;20266;-60
2021/12/30 02:18:25;;;;;;;13.82;5.20;;;;;;;14.03;78.22;101142.56;4939322;28;20118;-60
2021/12/30 02:20:56;;;;;;;14.73;5.47;;;;;;;14.09;77.94;101138.22;4941086;28;20624;-60
2021/12/30 02:23:24;;;;;;;12.48;5.30;;;;;;;14.06;77.83;101138.25;4939375;28;20474;-60
2021/12/30 02:25:55;;;;;;;12.07;5.55;;;;;;;14.05;77.88;101141.72;4943716;28;20090;-59
2021/12/30 02:28:23;;;;;;;15.27;5.45;;;;;;;13.88;78.27;101148.66;4946408;28;20398;-59
2021/12/30 02:30:49;;;;;;;11.50;5.03;;;;;;;14.03;78.02;101145.19;4941363;28;20410;-60
2021/12/30 02:33:14;;;;;;;12.98;5.25;;;;;;;14.04;77.88;101152.19;4940594;28;20051;-60
2021/12/30 02:35:40;;;;;;;13.90;5.32;;;;;;;14.04;77.81;101152.19;4938287;28;21047;-59
2021/12/30 02:38:05;;;;;;;13.45;5.15;;;;;;;14.02;78.00;101170.56;4944400;28;20046;-60
2021/12/30 02:40:36;;;;;;;16.50;5.45;;;;;;;14.11;77.79;101170.59;4942823;28;20049;-60
2021/12/30 02:43:02;;;;;;;13.73;5.60;;;;;;;14.15;77.76;101171.47;4947738;28;20491;-59
2021/12/30 02:45:28;;;;;;;12.25;4.90;;;;;;;14.15;77.68;101176.69;4930192;28;20097;-59
2021/12/30 02:47:53;;;;;;;14.35;5.35;;;;;;;14.14;77.67;101173.22;4945599;28;20046;-61
2021/12/30 02:50:18;;;;;;;15.18;5.65;;;;;;;14.07;78.01;101170.56;4943254;28;20042;-61
2021/12/30 02:52:44;;;;;;;14.43;5.40;;;;;;;14.10;78.07;101168.81;4945251;28;20129;-59
2021/12/30 02:55:11;;;;;;;14.55;5.10;;;;;;;14.02;78.16;101167.06;4940463;28;20450;-60
2021/12/30 02:57:36;;;;;;;14.73;5.50;;;;;;;14.15;77.96;101168.84;4938695;28;20142;-60
2021/12/30 03:00:04;;;;;;;17.05;5.75;;;;;;;14.11;77.96;101178.44;4942009;28;20470;-59
2021/12/30 03:02:30;;;;;;;18.75;6.25;;;;;;;14.14;77.81;101167.13;4944416;28;20358;-60
2021/12/30 03:04:55;;;;;;;23.27;6.82;;;;;;;14.06;78.28;101163.56;4940490;28;20077;-59
2021/12/30 03:07:20;;;;;;;26.10;7.50;;;;;;;14.12;78.10;101161.84;4944600;28;20121;-58
2021/12/30 03:09:46;;;;;;;27.27;7.90;;;;;;;14.06;78.29;101159.22;4944787;28;20097;-59
2021/12/30 03:12:11;;;;;;;27.58;9.07;;;;;;;14.10;78.22;101158.34;4945012;28;20463;-60
2021/12/30 03:14:41;;;;;;;29.88;9.02;;;;;;;14.00;78.94;101161.81;4944121;28;20097;-60
2021/12/30 03:17:06;;;;;;;28.88;8.80;;;;;;;14.19;78.26;101157.50;4943288;28;20545;-59
2021/12/30 03:19:32;;;;;;;29.60;8.93;;;;;;;14.12;78.56;101161.84;4937391;28;20053;-60
2021/12/30 03:21:57;;;;;;;28.13;8.90;;;;;;;14.11;78.64;101165.34;4942392;28;20043;-60
2021/12/30 03:24:23;;;;;;;29.20;8.95;;;;;;;14.09;78.75;101153.97;4945939;28;20051;-60
2021/12/30 03:26:48;;;;;;;29.98;8.25;;;;;;;14.04;78.67;101160.06;4965161;28;20030;-59
2021/12/30 03:29:14;;;;;;;25.13;7.88;;;;;;;14.11;78.63;101165.34;4947361;28;20201;-59
2021/12/30 03:31:39;;;;;;;24.30;7.38;;;;;;;14.09;78.71;101164.44;4954521;28;20309;-59
2021/12/30 03:34:05;;;;;;;26.02;7.57;;;;;;;14.10;78.64;101163.59;4944414;28;20145;-60
2021/12/30 03:36:32;;;;;;;24.67;7.43;;;;;;;14.14;78.46;101165.38;4941947;28;20043;-60
2021/12/30 03:38:57;;;;;;;27.80;7.57;;;;;;;14.16;78.16;101163.59;4942046;28;20045;-60
2021/12/30 03:41:25;;;;;;;26.55;7.50;;;;;;;14.17;78.30;101173.22;4937763;28;20054;-60
2021/12/30 03:43:51;;;;;;;25.95;7.72;;;;;;;14.21;78.18;101179.34;4942987;28;20026;-60
2021/12/30 03:46:16;;;;;;;31.67;8.18;;;;;;;14.19;78.10;101173.25;4945575;28;20050;-60
2021/12/30 03:48:44;;;;;;;34.50;9.98;;;;;;;14.10;78.39;101194.16;4934239;28;21578;-61
2021/12/30 03:51:14;;;;;;;34.13;9.55;;;;;;;14.17;78.21;101199.44;4942213;28;20047;-59
2021/12/30 03:53:42;;;;;;;33.10;10.48;;;;;;;14.12;78.15;101195.06;4935758;28;20047;-59
2021/12/30 03:56:09;;;;;;;35.47;11.18;;;;;;;14.06;78.21;101187.16;4944711;28;20494;-60
2021/12/30 03:58:35;;;;;;;36.92;12.15;;;;;;;14.10;78.30;101179.31;4942325;28;20774;-60
2021/12/30 04:01:02;;;;;;;35.05;12.40;;;;;;;14.09;78.12;101179.31;4942328;28;20337;-59
2021/12/30 04:03:27;;;;;;;35.85;12.85;;;;;;;14.07;78.09;101179.31;4937027;28;20530;-60
2021/12/30 04:05:52;;;;;;;35.28;12.73;;;;;;;14.10;78.30;101165.31;4957748;28;20782;-59
2021/12/30 04:08:18;;;;;;;37.05;12.18;;;;;;;14.14;78.01;101169.72;4943644;28;20081;-59
2021/12/30 04:10:43;;;;;;;33.70;11.80;;;;;;;14.07;78.27;101170.56;4942582;28;20121;-60
2021/12/30 04:13:09;;;;;;;34.72;11.15;;;;;;;14.00;78.54;101176.66;4941078;28;20049;-60
2021/12/30 04:15:34;;;;;;;28.88;11.38;;;;;;;14.06;78.27;101180.19;4937647;28;20167;-58
2021/12/30 04:17:59;;;;;;;32.83;11.13;;;;;;;14.03;78.22;101189.75;4933788;28;20061;-59
2021/12/30 04:20:25;;;;;;;28.55;10.93;;;;;;;14.14;77.87;101188.97;4942321;28;20125;-60
2021/12/30 04:22:50;;;;;;;26.55;10.55;;;;;;;14.03;77.89;101180.16;4943291;28;20054;-60
2021/12/30 04:25:17;;;;;;;28.15;10.55;;;;;;;14.17;77.72;101188.97;4944519;28;20141;-61
2021/12/30 04:27:43;;;;;;;29.05;10.27;;;;;;;14.13;77.61;101189.84;4940220;28;20051;-60
2021/12/30 04:30:11;;;;;;;30.30;10.73;;;;;;;14.05;77.83;101191.53;4934570;28;20053;-60
2021/12/30 04:32:36;;;;;;;29.20;11.10;;;;;;;14.07;77.63;101194.16;4939393;28;20566;-61
2021/12/30 04:35:03;;;;;;;31.08;10.20;;;;;;;14.10;77.47;101196.78;4946940;28;20053;-59
2021/12/30 04:37:28;;;;;;;29.55;9.30;;;;;;;14.07;77.66;101187.19;4927524;28;20125;-59
2021/12/30 04:39:54;;;;;;;24.85;7.47;;;;;;;13.99;77.96;101193.25;4938813;28;20135;-59
2021/12/30 04:42:19;;;;;;;25.00;7.88;;;;;;;14.04;77.67;101189.78;4942167;28;20203;-60
2021/12/30 04:44:47;;;;;;;22.67;7.50;;;;;;;14.14;77.25;101198.56;4942145;28;20127;-60
2021/12/30 04:47:13;;;;;;;23.15;7.65;;;;;;;14.16;77.35;101195.06;4947255;28;20042;-60
2021/12/30 04:49:39;;;;;;;22.35;7.57;;;;;;;14.00;77.22;101180.16;4935038;28;20481;-61
2021/12/30 04:52:04;;;;;;;27.85;7.82;;;;;;;13.92;77.45;101183.59;4940938;28;20054;-59
2021/12/30 04:54:30;;;;;;;27.30;9.13;;;;;;;13.92;77.74;101181.84;4942590;28;20495;-59
2021/12/30 04:56:55;;;;;;;26.30;9.52;;;;;;;13.98;77.66;101178.38;4930558;28;20521;-60
2021/12/30 04:59:21;;;;;;;27.90;9.77;;;;;;;13.96;77.40;101190.63;4935576;28;20035;-60
2021/12/30 05:01:46;;;;;;;24.98;9.40;;;;;;;13.96;77.44;101186.25;4935349;28;20050;-58
2021/12/30 05:04:12;;;;;;;31.00;10.00;;;;;;;13.88;77.65;101177.47;4954721;28;20046;-59
2021/12/30 05:06:39;;;;;;;28.25;10.63;;;;;;;13.82;78.07;101180.06;4939540;28;20050;-60
2021/12/30 05:09:08;;;;;;;27.00;9.82;;;;;;;13.99;77.38;101180.13;4935887;28;20047;-59
2021/12/30 05:11:39;;;;;;;25.65;10.23;;;;;;;13.98;77.59;101174.03;4932394;28;20129;-59
2021/12/30 05:14:04;;;;;;;26.80;9.45;;;;;;;13.94;78.02;101174.00;4945482;28;21379;-60
2021/12/30 05:16:30;;;;;;;25.75;8.93;;;;;;;14.02;77.76;101186.28;4945255;28;20076;-60
2021/12/30 05:18:57;;;;;;;21.58;8.45;;;;;;;13.98;78.06;101192.38;4933566;28;20478;-61
2021/12/30 05:21:23;;;;;;;20.83;6.88;;;;;;;14.01;78.05;101195.03;4938607;28;20104;-61
2021/12/30 05:23:49;;;;;;;15.52;5.25;;;;;;;14.15;77.96;101192.44;4941193;28;20491;-59
2021/12/30 05:26:16;;;;;;;13.23;4.65;;;;;;;14.15;77.98;101195.94;4935806;28;20062;-59
2021/12/30 05:28:42;;;;;;;12.05;4.10;;;;;;;14.00;78.41;101193.25;4943807;28;20415;-59
2021/12/30 05:31:07;;;;;;;13.05;3.63;;;;;;;14.16;77.92;101189.81;4936840;28;20051;-60
2021/12/30 05:33:33;;;;;;;17.23;3.95;;;;;;;14.17;77.89;101188.09;4934509;28;20464;-61
2021/12/30 05:35:58;;;;;;;14.75;3.80;;;;;;;14.18;77.54;101177.59;4943475;28;20081;-61
2021/12/30 05:38:24;;;;;;;11.52;3.78;;;;;;;14.21;77.74;101177.59;4948342;28;20057;-61
2021/12/30 05:40:49;;;;;;;9.77;3.38;;;;;;;14.25;77.33;101178.50;4942583;28;20081;-60
2021/12/30 05:43:15;;;;;;;12.23;3.28;;;;;;;14.27;77.25;101174.16;4937837;28;20067;-61
2021/12/30 05:45:40;;;;;;;12.13;2.90;;;;;;;14.23;77.54;101181.13;4931310;28;20133;-59
2021/12/30 05:48:05;;;;;;;12.45;3.10;;;;;;;14.32;77.17;101184.66;4939594;28;20046;-59
2021/12/30 05:50:31;;;;;;;17.30;3.33;;;;;;;14.17;77.68;101207.31;4940849;28;20482;-59
2021/12/30 05:52:57;;;;;;;11.50;2.60;;;;;;;14.38;77.08;101221.41;4935192;28;20046;-60
2021/12/30 05:55:22;;;;;;;8.30;2.65;;;;;;;14.35;77.43;101218.72;4936582;28;20515;-60
2021/12/30 05:57:49;;;;;;;10.60;3.13;;;;;;;14.48;77.12;101223.19;4935273;28;20055;-60
2021/12/30 06:00:17;;;;;;;12.32;3.85;;;;;;;14.44;77.17;101219.69;4943182;28;20430;-59
2021/12/30 06:02:43;;;;;;;13.50;4.85;;;;;;;14.51;77.22;101221.47;4937727;28;21449;-59
2021/12/30 06:05:09;;;;;;;13.25;4.70;;;;;;;14.41;77.35;101211.81;4942914;28;20035;-61
2021/12/30 06:07:34;;;;;;;15.55;5.90;;;;;;;14.47;77.46;101235.44;4941403;28;20046;-60
2021/12/30 06:10:00;;;;;;;18.25;6.30;;;;;;;14.53;77.22;101224.06;4945271;28;20130;-60
2021/12/30 06:12:25;;;;;;;15.20;6.05;;;;;;;14.51;77.17;101231.09;4946637;28;20046;-60
2021/12/30 06:14:51;;;;;;;11.20;5.30;;;;;;;14.63;76.79;101233.75;4943105;28;20054;-61
2021/12/30 06:17:18;;;;;;;17.00;6.00;;;;;;;14.60;77.02;101228.47;4939129;28;20431;-59
2021/12/30 06:19:44;;;;;;;14.20;6.75;;;;;;;14.61;76.98;101235.47;4944346;28;20056;-59
2021/12/30 06:22:10;;;;;;;12.93;6.55;;;;;;;14.61;76.88;101230.22;4944113;28;20398;-61
2021/12/30 06:24:36;;;;;;;15.07;6.90;;;;;;;14.56;76.90;101232.84;4943790;28;20058;-59
2021/12/30 06:27:01;;;;;;;12.55;7.10;;;;;;;14.64;76.74;101240.72;4946151;28;20722;-60
2021/12/30 06:29:26;;;;;;;16.23;6.43;;;;;;;14.67;76.86;101239.84;4952663;28;20050;-60
2021/12/30 06:31:52;;;;;;;15.35;5.90;;;;;;;14.51;77.27;101231.09;4940322;28;20038;-60
2021/12/30 06:34:17;;;;;;;12.45;4.88;;;;;;;14.68;76.81;101236.38;4946133;28;20034;-61
2021/12/30 06:36:43;;;;;;;11.35;4.63;;;;;;;14.68;76.65;101244.25;4950548;28;20399;-60
2021/12/30 06:39:08;;;;;;;9.60;3.70;;;;;;;14.64;76.64;101243.34;4944882;28;20050;-60
2021/12/30 06:41:33;;;;;;;11.80;3.90;;;;;;;14.65;76.74;101254.72;4938796;28;21255;-60
2021/12/30 06:43:59;;;;;;;10.63;3.50;;;;;;;14.59;76.81;101255.56;4940025;28;20149;-59
2021/12/30 06:46:24;;;;;;;7.97;3.25;;;;;;;14.58;77.07;101251.19;4948225;28;20162;-61
2021/12/30 06:48:50;;;;;;;9.57;2.95;;;;;;;14.48;77.23;101254.66;4942852;28;20105;-60
2021/12/30 06:51:19;;;;;;;7.30;3.25;;;;;;;14.41;77.38;101263.38;4941071;28;20320;-60
2021/12/30 06:53:45;;;;;;;7.30;3.10;;;;;;;14.38;77.49;101274.75;4943707;28;20054;-60
2021/12/30 06:56:11;;;;;;;9.27;3.05;;;;;;;14.33;78.01;101275.59;4946554;28;20121;-59
2021/12/30 06:58:36;;;;;;;7.82;2.80;;;;;;;14.31;77.79;101272.94;4942875;28;20047;-60
2021/12/30 07:01:03;;;;;;;7.20;2.97;;;;;;;14.23;78.04;101277.25;4943937;28;20051;-59
2021/12/30 07:03:28;;;;;;;10.77;4.00;;;;;;;14.25;78.19;101264.16;4935719;28;20181;-60
2021/12/30 07:05:54;;;;;;;11.25;3.92;;;;;;;14.22;78.40;101270.25;4944123;28;20065;-60
2021/12/30 07:08:23;;;;;;;16.40;4.63;;;;;;;14.12;78.61;101268.47;4946812;28;20073;-60
2021/12/30 07:10:49;;;;;;;16.70;5.68;;;;;;;14.17;78.52;101282.47;4942133;28;20256;-60
2021/12/30 07:13:14;;;;;;;19.67;5.55;;;;;;;14.15;78.59;101265.84;4942061;28;20043;-60
2021/12/30 07:15:40;;;;;;;22.10;5.85;;;;;;;14.13;78.52;101258.00;4934474;28;20198;-59
2021/12/30 07:18:05;;;;;;;21.45;5.95;;;;;;;14.18;78.25;101258.00;4941597;28;20070;-59
2021/12/30 07:20:31;;;;;;;24.08;6.20;;;;;;;14.14;78.60;101261.50;4940981;28;20096;-60
2021/12/30 07:22:56;;;;;;;25.33;5.90;;;;;;;14.24;78.12;101271.16;4940398;28;20122;-59
2021/12/30 07:25:22;;;;;;;25.05;5.53;;;;;;;14.15;78.08;101271.97;4941561;28;20043;-59
2021/12/30 07:27:49;;;;;;;29.27;6.25;;;;;;;14.18;78.20;101282.50;4936099;28;20129;-59
2021/12/30 07:30:15;;;;;;;26.35;5.53;;;;;;;14.21;78.00;101272.00;4940659;28;20047;-60
2021/12/30 07:32:41;;;;;;;21.25;5.07;;;;;;;14.16;78.23;101297.34;4943964;28;20047;-61
2021/12/30 07:35:07;;;;;;;23.77;5.45;;;;;;;14.06;78.42;101299.91;4940763;28;20051;-60
2021/12/30 07:37:33;;;;;;;20.70;5.10;;;;;;;14.08;78.47;101308.66;4937148;28;20051;-60
2021/12/30 07:39:58;;;;;;;22.17;5.47;;;;;;;14.01;78.56;101309.50;4937157;28;20043;-59
2021/12/30 07:42:23;;;;;;;20.70;5.40;;;;;;;14.03;78.34;101313.84;4942466;28;20690;-59
2021/12/30 07:44:49;;;;;;;24.13;5.18;;;;;;;14.00;78.36;101313.84;4943743;28;20048;-60
2021/12/30 07:47:14;;;;;;;25.88;5.15;;;;;;;13.97;78.44;101329.53;4941806;28;20107;-59
2021/12/30 07:49:39;;;;;;;22.42;5.57;;;;;;;13.73;79.00;101329.38;4937279;28;20992;-60
2021/12/30 07:52:06;;;;;;;21.10;5.13;;;;;;;13.95;78.42;101336.53;4942853;28;20115;-59
2021/12/30 07:54:32;;;;;;;28.17;5.68;;;;;;;13.96;78.44;101329.56;4943052;28;20409;-60
2021/12/30 07:56:58;;;;;;;28.20;5.72;;;;;;;13.85;78.76;101321.59;4945684;28;20046;-60
2021/12/30 07:59:23;;;;;;;23.33;5.03;;;;;;;13.99;78.50;101330.44;4936560;28;20586;-61
2021/12/30 08:01:49;;;;;;;26.08;5.35;;;;;;;13.89;78.73;101327.75;4939452;28;20055;-59
2021/12/30 08:04:14;;;;;;;26.88;5.57;;;;;;;13.97;78.75;101324.31;4942004;28;20538;-60
2021/12/30 08:06:39;;;;;;;27.80;5.68;;;;;;;14.03;78.45;101320.84;4946302;28;20305;-60
2021/12/30 08:09:06;;;;;;;30.83;5.28;;;;;;;14.17;77.91;101340.16;4931012;28;20046;-60
2021/12/30 08:11:32;;;;;;;28.90;5.35;;;;;;;14.19;77.73;101343.69;4935173;28;20478;-60
2021/12/30 08:13:59;;;;;;;35.53;5.45;;;;;;;14.05;78.05;101345.34;4942202;28;20058;-60
2021/12/30 08:16:25;;;;;;;28.35;5.70;;;;;;;14.18;77.58;101347.16;4944792;28;20130;-59
2021/12/30 08:18:50;;;;;;;33.90;5.82;;;;;;;14.28;77.24;101354.22;4932033;28;20486;-59
2021/12/30 08:21:16;;;;;;;29.40;5.13;;;;;;;14.22;77.46;101359.41;4937318;28;20057;-60
2021/12/30 08:23:43;;;;;;;33.17;5.40;;;;;;;14.18;77.32;101361.16;4936981;28;20288;-61
2021/12/30 08:26:09;;;;;;;29.98;5.50;;;;;;;14.21;77.54;101360.28;4929177;28;20511;-60
2021/12/30 08:28:34;;;;;;;39.70;5.38;;;;;;;14.15;77.54;101355.88;4935372;28;20461;-62
2021/12/30 08:30:59;;;;;;;35.88;5.72;;;;;;;14.17;77.46;101369.00;4940927;28;20148;-61
2021/12/30 08:33:25;;;;;;;35.08;5.82;;;;;;;14.10;77.62;101364.59;4933609;28;20214;-63
2021/12/30 08:35:50;;;;;;;31.80;5.60;;;;;;;14.13;77.32;101348.91;4939521;28;20505;-60
2021/12/30 08:38:17;;;;;;;37.40;6.07;;;;;;;14.20;77.02;101358.56;4942590;28;20114;-60
2021/12/30 08:40:45;;;;;;;33.65;5.97;;;;;;;14.20;77.02;101364.69;4928973;28;20041;-61
2021/12/30 08:43:13;;;;;;;35.60;6.03;;;;;;;14.15;77.11;101379.47;4938348;28;20112;-60
2021/12/30 08:45:38;;;;;;;33.83;5.38;;;;;;;14.16;77.20;101376.00;4929473;28;21089;-60
2021/12/30 08:48:04;;;;;;;37.58;6.38;;;;;;;14.22;76.83;101383.03;4934161;28;20034;-60
2021/12/30 08:50:30;;;;;;;30.88;5.75;;;;;;;14.18;77.16;101370.78;4955527;28;20146;-60
2021/12/30 08:52:55;;;;;;;32.25;6.25;;;;;;;14.32;76.47;101381.34;4941475;28;20339;-60
2021/12/30 08:55:21;;;;;;;30.00;5.65;;;;;;;14.27;76.52;101383.97;4941187;28;20050;-60
2021/12/30 08:57:47;;;;;;;29.13;5.53;;;;;;;14.30;76.32;101393.56;4938926;28;20886;-59
2021/12/30 09:00:18;;;;;;;30.83;5.30;;;;;;;14.33;76.23;101393.59;4941296;28;20031;-60
2021/12/30 09:02:43;;;;;;;39.58;5.78;;;;;;;14.40;75.93;101388.41;4937198;28;20362;-60
2021/12/30 09:05:09;;;;;;;35.78;5.43;;;;;;;14.28;76.18;101396.19;4942778;28;20125;-60
2021/12/30 09:07:35;;;;;;;29.70;4.72;;;;;;;14.51;75.64;101397.25;4935332;28;20043;-59
2021/12/30 09:10:00;;;;;;;30.98;5.15;;;;;;;14.37;75.92;101398.00;4938171;28;20101;-60
2021/12/30 09:12:26;;;;;;;34.15;5.10;;;;;;;14.45;75.84;101396.34;4957042;28;20073;-60
2021/12/30 09:14:52;;;;;;;26.58;4.80;;;;;;;14.50;75.44;101399.84;4958966;28;20042;-60
2021/12/30 09:17:18;;;;;;;34.08;5.20;;;;;;;14.49;75.24;101398.09;4933705;28;20336;-59
2021/12/30 09:19:43;;;;;;;27.60;5.13;;;;;;;14.58;74.96;101401.63;4935694;28;20415;-59
2021/12/30 09:22:09;;;;;;;32.95;5.28;;;;;;;14.56;75.11;101392.03;4939571;28;20121;-60
2021/12/30 09:24:34;;;;;;;30.67;5.82;;;;;;;14.51;75.01;101406.88;4940546;28;20046;-60
2021/12/30 09:27:00;;;;;;;29.08;5.80;;;;;;;14.48;75.04;101415.59;4942108;28;20556;-59
2021/12/30 09:29:26;;;;;;;32.47;5.43;;;;;;;14.50;75.05;101415.59;4933771;28;20332;-59
2021/12/30 09:31:51;;;;;;;31.85;6.20;;;;;;;14.42;75.14;101394.56;4933112;28;20235;-60
2021/12/30 09:34:17;;;;;;;30.33;6.40;;;;;;;14.44;75.46;101423.44;4938240;28;20034;-59
2021/12/30 09:36:43;;;;;;;33.10;6.30;;;;;;;14.58;74.92;101422.63;4944618;28;20495;-59
2021/12/30 09:39:11;;;;;;;35.63;7.13;;;;;;;14.56;74.59;101426.13;4936706;28;20081;-59
2021/12/30 09:41:39;;;;;;;35.35;6.75;;;;;;;14.61;74.48;101421.78;4936372;28;20101;-60
2021/12/30 09:44:06;;;;;;;36.47;7.25;;;;;;;14.41;75.17;101419.03;4944380;28;20344;-59
2021/12/30 09:46:31;;;;;;;33.15;7.28;;;;;;;14.43;75.22;101427.81;4937477;28;20435;-59
2021/12/30 09:48:57;;;;;;;37.70;7.95;;;;;;;14.35;75.71;101439.06;4945297;28;20119;-60
2021/12/30 09:51:22;;;;;;;37.17;8.18;;;;;;;14.42;75.50;101410.31;4936757;28;20146;-61
2021/12/30 09:53:51;;;;;;;37.90;8.00;;;;;;;14.41;75.70;101428.66;4942750;28;20253;-59
2021/12/30 09:56:18;;;;;;;30.45;6.85;;;;;;;14.52;75.55;101417.34;4943586;28;20458;-61
2021/12/30 09:58:44;;;;;;;33.05;7.72;;;;;;;14.46;75.58;101411.19;4944553;28;20070;-59
2021/12/30 10:01:14;;;;;;;33.00;7.45;;;;;;;14.59;75.15;101434.88;4945922;28;20129;-60
2021/12/30 10:03:40;;;;;;;33.78;7.90;;;;;;;14.71;74.77;101427.94;4934048;28;20097;-60
2021/12/30 10:06:11;;;;;;;30.90;7.45;;;;;;;14.67;74.78;101416.56;4942608;28;20043;-60
2021/12/30 10:08:43;;;;;;;33.00;7.30;;;;;;;14.64;74.94;101434.91;4947087;28;20122;-62
2021/12/30 10:11:13;;;;;;;29.00;6.75;;;;;;;14.71;74.70;101418.31;4954911;28;20046;-60
2021/12/30 10:13:43;;;;;;;28.25;6.88;;;;;;;14.47;75.16;101416.44;4938836;28;20543;-59
2021/12/30 10:16:16;;;;;;;28.52;7.43;;;;;;;14.59;75.25;101416.53;4940745;28;20081;-59
2021/12/30 10:18:56;;;;;;;29.27;6.45;;;;;;;14.65;75.25;101425.28;4942869;28;20046;-59
2021/12/30 10:21:31;;;;;;;27.90;7.25;;;;;;;14.80;74.78;101422.75;4955800;28;20082;-59
2021/12/30 10:23:57;;;;;;;;;;;;;;;14.60;75.23;101420.91;4938899;28;20039;-61
2021/12/30 10:26:23;;;;;;;30.13;6.90;;;;;;;14.63;75.17;101433.19;4936770;28;19926;-59
2021/12/30 10:28:59;;;;;;;31.25;6.50;;;;;;;14.66;74.89;101448.91;4941937;28;20157;-59
2021/12/30 10:31:27;;;;;;;21.73;5.88;;;;;;;14.71;75.03;101448.94;4925022;28;20425;-59
2021/12/30 10:34:01;;;;;;;27.25;5.22;;;;;;;14.82;74.65;101450.75;4936809;28;20082;-61
2021/12/30 10:36:40;;;;;;;26.58;5.40;;;;;;;14.72;74.89;101443.72;4938108;28;20038;-59
2021/12/30 10:39:35;;;;;;;22.70;4.45;;;;;;;14.75;74.96;101453.38;4946202;28;20355;-60
2021/12/30 10:42:09;;;;;;;;;;;;;;;14.67;74.99;101449.81;4941429;28;20051;-59
2021/12/30 10:45:05;;;;;;;21.15;4.57;;;;;;;14.75;74.50;101448.13;4946962;28;19922;-59
2021/12/30 10:47:33;;;;;;;22.05;4.82;;;;;;;14.71;74.80;101441.94;4935130;28;20168;-59
2021/12/30 10:50:01;;;;;;;24.20;5.78;;;;;;;14.84;74.50;101458.66;4946141;28;20089;-59
2021/12/30 10:52:27;;;;;;;20.90;4.90;;;;;;;14.88;74.25;101447.31;4932846;28;20042;-59
2021/12/30 10:54:53;;;;;;;20.88;5.38;;;;;;;14.74;75.09;101456.84;4939528;28;20058;-60
2021/12/30 10:57:18;;;;;;;22.00;5.50;;;;;;;14.70;74.97;101465.59;4933496;28;20062;-61
2021/12/30 10:59:47;;;;;;;25.67;6.28;;;;;;;14.85;74.80;101465.66;4938691;28;20506;-60
2021/12/30 11:02:16;;;;;;;24.15;6.28;;;;;;;14.91;74.60;101452.56;4942505;28;20043;-60
2021/12/30 11:04:49;;;;;;;21.35;7.80;;;;;;;14.85;74.73;101450.78;4944828;28;20789;-59
2021/12/30 11:07:18;;;;;;;27.63;8.60;;;;;;;14.87;74.92;101451.69;4939622;28;20399;-60
2021/12/30 11:09:49;;;;;;;31.85;8.55;;;;;;;14.85;74.65;101455.16;4933906;28;20046;-60
2021/12/30 11:12:16;;;;;;;25.77;7.95;;;;;;;14.75;75.14;101458.59;4943549;28;20056;-59
2021/12/30 11:14:42;;;;;;;27.27;7.97;;;;;;;14.82;74.81;101463.88;4943760;28;20039;-59